Terminal Aerodrome Forecast
Issued by NWS Twin Cities, MN

Home | Current Version | Previous Version | Graphics & Text | Print | Product List | Glossary On
Versions: 1 2 3 4 5 6 7 8 9 10 11 12 13 14 15 16 17 18 19 20 21 22
000
FTUS43 KMPX 220520
TAFEAU
TAF
KEAU 220520Z 2206/2306 00000KT P6SM BKN250
     FM221700 09006KT P6SM OVC090
     FM222200 10007KT P6SM VCSH OVC040
     FM230100 10008KT 5SM -SN BR OVC030
     FM230200 11008KT 1 1/2SM -SN BR OVC010=

USA.gov is the U.S. government's official web portal to all federal, state and local government web resources and services.